createdAt,value
2023-01-29T00:01:59.834Z,98889.13
2023-01-29T00:04:27.212Z,98879.25
2023-01-29T00:06:54.281Z,98873.78
2023-01-29T00:09:21.867Z,98859.66
2023-01-29T00:11:48.966Z,98857.88
2023-01-29T00:14:16.240Z,98854.94
2023-01-29T00:16:43.319Z,98841.66
2023-01-29T00:19:10.525Z,98846.94
2023-01-29T00:21:37.612Z,98843.28
2023-01-29T00:24:05.113Z,98844.16
2023-01-29T00:26:32.412Z,98832.97
2023-01-29T00:29:00.876Z,98830.16
2023-01-29T00:31:28.443Z,98833.84
2023-01-29T00:33:55.689Z,98825.88
2023-01-29T00:36:23.528Z,98829.41
2023-01-29T00:39:02.934Z,98826.00
2023-01-29T00:41:50.610Z,98821.34
2023-01-29T00:44:36.708Z,98818.94
2023-01-29T00:47:04.438Z,98817.63
2023-01-29T00:49:31.537Z,98826.19
2023-01-29T00:52:16.923Z,98817.16
2023-01-29T00:54:43.973Z,98815.84
2023-01-29T00:57:11.112Z,98811.88
2023-01-29T00:59:38.279Z,98814.22
2023-01-29T01:02:24.016Z,98808.63
2023-01-29T01:04:51.221Z,98805.97
2023-01-29T01:07:18.287Z,98803.72
2023-01-29T01:10:03.939Z,98797.06
2023-01-29T01:12:32.092Z,98801.53
2023-01-29T01:14:59.183Z,98799.13
2023-01-29T01:17:26.522Z,98794.56
2023-01-29T01:19:53.549Z,98791.47
2023-01-29T01:22:20.790Z,98777.16
2023-01-29T01:24:47.810Z,98770.72
2023-01-29T01:27:15.069Z,98757.00
2023-01-29T01:29:42.191Z,98775.59
2023-01-29T01:32:09.208Z,98775.91
2023-01-29T01:34:36.224Z,98779.44
2023-01-29T01:37:03.341Z,98781.50
2023-01-29T01:39:30.516Z,98779.88
2023-01-29T01:41:57.621Z,98777.50
2023-01-29T01:44:57.296Z,98782.34
2023-01-29T01:47:30.567Z,98777.94
2023-01-29T01:50:04.696Z,98777.94
2023-01-29T01:52:33.012Z,98779.97
2023-01-29T01:55:01.056Z,98778.03
2023-01-29T01:57:31.558Z,98778.38
2023-01-29T02:00:10.463Z,98773.31
2023-01-29T02:02:59.720Z,98769.94
2023-01-29T02:05:46.872Z,98768.91
2023-01-29T02:08:34.078Z,98760.09
2023-01-29T02:11:01.601Z,98756.72
2023-01-29T02:13:28.667Z,98750.09
2023-01-29T02:15:56.165Z,98747.28
2023-01-29T02:18:23.227Z,98749.50
2023-01-29T02:21:13.091Z,98739.34
2023-01-29T02:23:55.697Z,98735.66
2023-01-29T02:26:28.638Z,98727.09
2023-01-29T02:28:58.572Z,98717.81
2023-01-29T02:31:50.966Z,98720.22
2023-01-29T02:34:59.908Z,98722.25
2023-01-29T02:37:36.347Z,98710.19
2023-01-29T02:40:32.076Z,98704.88
2023-01-29T02:43:23.059Z,98706.34
2023-01-29T02:46:07.507Z,98703.69
2023-01-29T02:48:43.605Z,98692.78
2023-01-29T02:51:26.982Z,98695.44
2023-01-29T02:54:03.705Z,98697.19
2023-01-29T02:56:42.260Z,98690.13
2023-01-29T02:59:15.987Z,98681.59
2023-01-29T03:01:51.819Z,98680.28
2023-01-29T03:04:33.920Z,98669.22
2023-01-29T03:07:10.896Z,98677.50
2023-01-29T03:09:44.978Z,98679.41
2023-01-29T03:12:34.056Z,98676.75
2023-01-29T03:15:12.616Z,98679.25
2023-01-29T03:17:48.530Z,98680.13
2023-01-29T03:20:23.714Z,98692.63
2023-01-29T03:22:56.639Z,98694.84
2023-01-29T03:25:44.865Z,98710.47
2023-01-29T03:28:34.537Z,98717.44
2023-01-29T03:31:24.539Z,98703.00
2023-01-29T03:34:16.690Z,98704.47
2023-01-29T03:36:56.353Z,98702.56
2023-01-29T03:39:28.651Z,98690.94
2023-01-29T03:42:05.127Z,98684.00
2023-01-29T03:44:34.934Z,98679.28
2023-01-29T03:47:32.608Z,98671.19
2023-01-29T03:50:37.036Z,98663.97
2023-01-29T03:53:31.867Z,98669.88
2023-01-29T03:56:03.943Z,98669.13
2023-01-29T03:58:45.894Z,98661.63
2023-01-29T04:01:12.913Z,98666.16
2023-01-29T04:03:53.232Z,98668.09
2023-01-29T04:06:27.669Z,98665.16
2023-01-29T04:09:11.945Z,98658.94
2023-01-29T04:11:41.581Z,98658.38
2023-01-29T04:14:10.911Z,98658.38
2023-01-29T04:16:42.439Z,98654.09
2023-01-29T04:19:09.626Z,98657.81
2023-01-29T04:21:37.816Z,98663.09
2023-01-29T04:24:06.716Z,98657.34
2023-01-29T04:27:05.038Z,98663.53
2023-01-29T04:29:40.475Z,98666.31
2023-01-29T04:32:16.975Z,98672.94
2023-01-29T04:35:12.960Z,98673.09
2023-01-29T04:38:24.712Z,98673.38
2023-01-29T04:40:55.739Z,98673.06
2023-01-29T04:43:56.691Z,98670.53
2023-01-29T04:46:30.222Z,98676.03
2023-01-29T04:49:19.004Z,98668.66
2023-01-29T04:51:52.305Z,98669.53
2023-01-29T04:54:44.092Z,98671.19
2023-01-29T04:57:30.522Z,98667.50
2023-01-29T05:00:04.720Z,98671.03
2023-01-29T05:02:34.311Z,98674.44
2023-01-29T05:05:04.733Z,98670.59
2023-01-29T05:07:32.327Z,98657.91
2023-01-29T05:10:00.273Z,98668.66
2023-01-29T05:12:30.753Z,98663.34
2023-01-29T05:15:02.474Z,98664.84
2023-01-29T05:17:30.154Z,98658.19
2023-01-29T05:19:57.689Z,98653.31
2023-01-29T05:22:24.995Z,98657.47
2023-01-29T05:24:52.253Z,98655.97
2023-01-29T05:27:43.250Z,98660.69
2023-01-29T05:30:10.901Z,98666.44
2023-01-29T05:32:39.924Z,98659.38
2023-01-29T05:35:07.619Z,98666.16
2023-01-29T05:37:34.792Z,98674.38
2023-01-29T05:40:01.970Z,98666.72
2023-01-29T05:42:29.354Z,98668.59
2023-01-29T05:44:56.422Z,98663.16
2023-01-29T05:47:23.541Z,98668.47
2023-01-29T05:49:50.559Z,98660.03
2023-01-29T05:52:17.625Z,98657.69
2023-01-29T05:54:44.670Z,98654.88
2023-01-29T05:57:11.760Z,98648.56
2023-01-29T05:59:38.843Z,98655.63
2023-01-29T06:02:05.909Z,98660.06
2023-01-29T06:04:32.993Z,98652.41
2023-01-29T06:07:01.591Z,98654.34
2023-01-29T06:09:28.605Z,98658.34
2023-01-29T06:11:56.193Z,98665.44
2023-01-29T06:14:23.547Z,98667.06
2023-01-29T06:16:50.615Z,98668.97
2023-01-29T06:19:18.497Z,98673.09
2023-01-29T06:21:45.722Z,98691.19
2023-01-29T06:24:12.807Z,98691.94
2023-01-29T06:26:39.856Z,98689.59
2023-01-29T06:29:06.907Z,98694.91
2023-01-29T06:31:38.830Z,98698.41
2023-01-29T06:34:08.000Z,98691.97
2023-01-29T06:36:35.250Z,98698.69
2023-01-29T06:39:03.107Z,98692.53
2023-01-29T06:41:30.306Z,98695.75
2023-01-29T06:43:57.421Z,98701.06
2023-01-29T06:46:24.548Z,98687.22
2023-01-29T06:48:51.550Z,98692.78
2023-01-29T06:51:19.108Z,98692.94
2023-01-29T06:53:46.863Z,98697.81
2023-01-29T06:56:14.057Z,98692.50
2023-01-29T06:58:41.109Z,98692.69
2023-01-29T07:01:10.384Z,98698.28
2023-01-29T07:03:37.704Z,98697.38
2023-01-29T07:06:05.625Z,98696.38
2023-01-29T07:08:32.699Z,98702.84
2023-01-29T07:11:00.919Z,98702.84
2023-01-29T07:13:28.194Z,98713.47
2023-01-29T07:15:58.283Z,98711.97
2023-01-29T07:18:25.411Z,98715.53
2023-01-29T07:20:52.448Z,98718.78
2023-01-29T07:23:19.839Z,98718.47
2023-01-29T07:25:47.348Z,98728.34
2023-01-29T07:28:14.357Z,98726.44
2023-01-29T07:30:41.876Z,98730.53
2023-01-29T07:33:10.101Z,98735.25
2023-01-29T07:35:39.544Z,98723.03
2023-01-29T07:38:07.926Z,98732.91
2023-01-29T07:40:35.478Z,98722.16
2023-01-29T07:43:04.619Z,98724.38
2023-01-29T07:45:33.772Z,98727.16
2023-01-29T07:48:00.858Z,98722.44
2023-01-29T07:50:28.235Z,98727.44
2023-01-29T07:52:55.528Z,98726.69
2023-01-29T07:55:22.903Z,98728.28
2023-01-29T07:57:59.895Z,98732.56
2023-01-29T08:00:27.272Z,98734.31
2023-01-29T08:02:54.279Z,98736.84
2023-01-29T08:05:21.466Z,98740.22
2023-01-29T08:08:06.124Z,98743.78
2023-01-29T08:10:34.800Z,98742.56
2023-01-29T08:13:02.725Z,98751.13
2023-01-29T08:15:30.526Z,98755.81
2023-01-29T08:20:44.614Z,98757.63
2023-01-29T08:23:16.879Z,98765.56
2023-01-29T08:25:44.230Z,98765.84
2023-01-29T08:28:12.656Z,98777.34
2023-01-29T08:30:40.108Z,98782.03
2023-01-29T08:33:07.163Z,98786.47
2023-01-29T08:35:34.241Z,98800.22
2023-01-29T08:38:03.738Z,98801.94
2023-01-29T08:40:33.129Z,98810.31
2023-01-29T08:43:07.850Z,98816.22
2023-01-29T08:45:38.322Z,98813.00
2023-01-29T08:48:05.764Z,98817.19
2023-01-29T08:50:35.214Z,98813.34
2023-01-29T08:53:04.104Z,98813.63
2023-01-29T08:55:31.216Z,98823.69
2023-01-29T08:57:58.265Z,98821.47
2023-01-29T09:00:25.353Z,98832.38
2023-01-29T09:02:52.784Z,98839.88
2023-01-29T09:05:20.220Z,98840.47
2023-01-29T09:07:47.471Z,98839.44
2023-01-29T09:10:14.611Z,98837.97
2023-01-29T09:12:41.748Z,98850.50
2023-01-29T09:15:09.439Z,98846.25
2023-01-29T09:17:36.566Z,98851.97
2023-01-29T09:20:06.571Z,98842.38
2023-01-29T09:22:34.358Z,98841.22
2023-01-29T09:25:01.446Z,98847.84
2023-01-29T09:27:28.850Z,98835.19
2023-01-29T09:29:55.867Z,98851.38
2023-01-29T09:32:49.800Z,98860.66
2023-01-29T09:35:10.319Z,98855.22
2023-01-29T09:37:37.344Z,98853.59
2023-01-29T09:40:04.855Z,98851.06
2023-01-29T09:42:43.680Z,98861.38
2023-01-29T09:45:19.737Z,98865.78
2023-01-29T09:47:49.007Z,98870.34
2023-01-29T09:50:21.682Z,98884.94
2023-01-29T09:52:56.378Z,98892.63
2023-01-29T09:55:31.431Z,98900.75
2023-01-29T09:58:12.216Z,98910.06
2023-01-29T10:00:54.385Z,98917.75
2023-01-29T10:03:49.113Z,98910.94
2023-01-29T10:06:32.473Z,98911.13
2023-01-29T10:09:18.000Z,98912.84
2023-01-29T10:12:16.879Z,98917.16
2023-01-29T10:14:50.156Z,98921.56
2023-01-29T10:17:43.634Z,98921.56
2023-01-29T10:20:20.012Z,98919.22
2023-01-29T10:23:16.151Z,98917.44
2023-01-29T10:25:46.185Z,98917.28
2023-01-29T10:28:19.554Z,98916.09
2023-01-29T10:30:52.280Z,98914.75
2023-01-29T10:33:49.571Z,98906.47
2023-01-29T10:36:37.159Z,98911.75
2023-01-29T10:39:04.450Z,98912.47
2023-01-29T10:41:41.565Z,98924.97
2023-01-29T10:44:27.618Z,98918.41
2023-01-29T10:47:25.850Z,98916.47
2023-01-29T10:50:27.838Z,98916.56
2023-01-29T10:53:03.927Z,98921.81
2023-01-29T10:55:55.378Z,98917.63
2023-01-29T10:58:31.767Z,98914.53
2023-01-29T11:00:59.209Z,98912.59
2023-01-29T11:03:30.361Z,98906.94
2023-01-29T11:06:19.648Z,98903.63
2023-01-29T11:09:01.889Z,98897.41
2023-01-29T11:11:39.805Z,98901.22
2023-01-29T11:14:27.151Z,98892.31
2023-01-29T11:16:54.692Z,98895.50
2023-01-29T11:19:43.040Z,98895.16
2023-01-29T11:22:17.506Z,98891.16
2023-01-29T11:24:44.671Z,98897.31
2023-01-29T11:27:16.714Z,98899.16
2023-01-29T11:29:46.301Z,98894.38
2023-01-29T11:32:22.156Z,98889.03
2023-01-29T11:35:30.965Z,98893.00
2023-01-29T11:38:16.788Z,98890.16
2023-01-29T11:40:44.479Z,98889.75
2023-01-29T11:43:38.836Z,98885.38
2023-01-29T11:46:12.162Z,98881.53
2023-01-29T11:48:42.258Z,98871.63
2023-01-29T11:51:12.281Z,98870.06
2023-01-29T11:53:43.309Z,98871.78
2023-01-29T11:56:22.718Z,98866.91
2023-01-29T11:58:51.602Z,98858.06
2023-01-29T12:01:29.930Z,98862.28
2023-01-29T12:03:57.252Z,98846.50
2023-01-29T12:06:30.985Z,98846.75
2023-01-29T12:09:01.306Z,98842.44
2023-01-29T12:11:34.795Z,98837.41
2023-01-29T12:14:06.720Z,98837.56
2023-01-29T12:16:36.420Z,98838.84
2023-01-29T12:19:38.585Z,98821.56
2023-01-29T12:22:09.745Z,98823.19
2023-01-29T12:24:50.736Z,98823.78
2023-01-29T12:27:47.135Z,98829.03
2023-01-29T12:30:22.736Z,98837.56
2023-01-29T12:33:08.966Z,98828.44
2023-01-29T12:35:46.308Z,98822.50
2023-01-29T12:38:23.298Z,98810.47
2023-01-29T12:40:57.491Z,98815.88
2023-01-29T12:43:39.139Z,98804.56
2023-01-29T12:46:14.240Z,98798.78
2023-01-29T12:48:44.211Z,98795.59
2023-01-29T12:51:17.315Z,98792.28
2023-01-29T12:53:50.519Z,98798.16
2023-01-29T12:56:27.456Z,98778.84
2023-01-29T12:58:56.148Z,98759.97
2023-01-29T13:01:35.024Z,98759.28
2023-01-29T13:04:51.375Z,98746.56
2023-01-29T13:07:24.416Z,98748.75
2023-01-29T13:09:57.533Z,98744.75
2023-01-29T13:12:25.879Z,98752.09
2023-01-29T13:14:58.796Z,98745.13
2023-01-29T13:17:39.734Z,98744.50
2023-01-29T13:20:34.150Z,98744.66
2023-01-29T13:23:24.460Z,98742.28
2023-01-29T13:25:55.029Z,98738.94
2023-01-29T13:28:25.853Z,98743.38
2023-01-29T13:31:29.964Z,98738.78
2023-01-29T13:34:00.255Z,98726.28
2023-01-29T13:36:29.943Z,98734.81
2023-01-29T13:39:03.208Z,98734.16
2023-01-29T13:41:40.159Z,98731.63
2023-01-29T13:44:21.942Z,98723.63
2023-01-29T13:46:55.016Z,98707.13
2023-01-29T13:49:47.675Z,98706.06
2023-01-29T13:52:43.539Z,98710.78
2023-01-29T13:55:21.775Z,98716.84
2023-01-29T13:57:55.419Z,98714.00
2023-01-29T14:00:23.211Z,98702.31
2023-01-29T14:03:05.490Z,98693.44
2023-01-29T14:05:34.457Z,98685.53
2023-01-29T14:08:14.070Z,98682.63
2023-01-29T14:10:42.866Z,98676.53
2023-01-29T14:13:19.120Z,98678.56
2023-01-29T14:15:59.126Z,98662.56
2023-01-29T14:18:28.365Z,98656.50
2023-01-29T14:21:00.000Z,98648.34
2023-01-29T14:23:33.301Z,98631.84
2023-01-29T14:26:02.674Z,98637.34
2023-01-29T14:28:32.218Z,98630.66
2023-01-29T14:31:00.121Z,98624.53
2023-01-29T14:33:47.482Z,98622.84
2023-01-29T14:36:16.035Z,98621.13
2023-01-29T14:38:52.561Z,98620.88
2023-01-29T14:41:31.828Z,98619.19
2023-01-29T14:44:40.492Z,98611.84
2023-01-29T14:47:19.698Z,98598.00
2023-01-29T14:50:00.215Z,98595.00
2023-01-29T14:52:42.841Z,98605.28
2023-01-29T14:55:23.115Z,98601.78
2023-01-29T14:57:51.701Z,98611.94
2023-01-29T15:00:28.285Z,98616.34
2023-01-29T15:03:01.880Z,98624.88
2023-01-29T15:05:31.103Z,98622.25
2023-01-29T15:08:30.374Z,98617.38
2023-01-29T15:11:19.529Z,98622.06
2023-01-29T15:13:52.417Z,98617.59
2023-01-29T15:16:34.538Z,98605.44
2023-01-29T15:19:40.453Z,98606.38
2023-01-29T15:22:13.546Z,98607.13
2023-01-29T15:24:42.759Z,98601.16
2023-01-29T15:27:20.671Z,98595.69
2023-01-29T15:30:00.582Z,98606.53
2023-01-29T15:32:40.062Z,98603.41
2023-01-29T15:35:11.508Z,98592.75
2023-01-29T15:37:39.009Z,98598.75
2023-01-29T15:40:14.969Z,98608.34
2023-01-29T15:42:48.754Z,98603.47
2023-01-29T15:45:22.846Z,98605.72
2023-01-29T15:47:50.716Z,98607.34
2023-01-29T15:50:18.095Z,98611.03
2023-01-29T15:52:51.105Z,98610.28
2023-01-29T15:55:21.804Z,98609.38
2023-01-29T15:57:49.442Z,98601.53
2023-01-29T16:00:34.666Z,98595.69
2023-01-29T16:03:15.251Z,98605.63
2023-01-29T16:05:42.613Z,98611.31
2023-01-29T16:08:14.244Z,98610.16
2023-01-29T16:10:42.607Z,98615.63
2023-01-29T16:13:22.436Z,98616.31
2023-01-29T16:15:57.125Z,98617.84
2023-01-29T16:18:36.517Z,98616.41
2023-01-29T16:21:28.250Z,98618.03
2023-01-29T16:24:01.691Z,98616.19
2023-01-29T16:26:34.293Z,98619.84
2023-01-29T16:29:10.120Z,98607.94
2023-01-29T16:31:39.046Z,98610.47
2023-01-29T16:34:09.466Z,98610.81
2023-01-29T16:36:36.818Z,98619.03
2023-01-29T16:39:14.308Z,98624.53
2023-01-29T16:41:41.363Z,98629.84
2023-01-29T16:44:17.664Z,98634.56
2023-01-29T16:46:49.161Z,98640.75
2023-01-29T16:49:32.298Z,98641.41
2023-01-29T16:52:27.480Z,98652.16
2023-01-29T16:55:00.829Z,98652.50
2023-01-29T16:57:33.961Z,98657.53
2023-01-29T17:00:06.849Z,98655.34
2023-01-29T17:02:38.602Z,98667.69
2023-01-29T17:05:09.717Z,98670.34
2023-01-29T17:07:37.723Z,98666.59
2023-01-29T17:10:06.865Z,98660.22
2023-01-29T17:12:35.421Z,98663.13
2023-01-29T17:15:25.337Z,98653.94
2023-01-29T17:17:52.335Z,98657.25
2023-01-29T17:20:19.560Z,98664.97
2023-01-29T17:22:47.343Z,98662.53
2023-01-29T17:25:15.971Z,98661.78
2023-01-29T17:27:45.632Z,98664.25
2023-01-29T17:30:17.471Z,98664.78
2023-01-29T17:32:47.554Z,98661.66
2023-01-29T17:35:16.463Z,98670.56
2023-01-29T17:37:44.672Z,98664.97
2023-01-29T17:40:41.078Z,98662.56
2023-01-29T17:43:08.219Z,98661.66
2023-01-29T17:45:35.293Z,98664.41
2023-01-29T17:48:02.455Z,98667.41
2023-01-29T17:50:32.016Z,98672.53
2023-01-29T17:52:59.024Z,98656.06
2023-01-29T17:55:26.106Z,98655.16
2023-01-29T17:57:53.166Z,98656.59
2023-01-29T18:00:22.931Z,98667.25
2023-01-29T18:02:50.372Z,98671.53
2023-01-29T18:05:18.562Z,98668.53
2023-01-29T18:07:47.198Z,98664.56
2023-01-29T18:10:19.817Z,98675.97
2023-01-29T18:12:47.444Z,98670.66
2023-01-29T18:15:14.950Z,98670.88
2023-01-29T18:17:43.045Z,98680.16
2023-01-29T18:20:28.578Z,98682.66
2023-01-29T18:22:55.745Z,98691.09
2023-01-29T18:25:24.747Z,98695.50
2023-01-29T18:27:52.649Z,98693.13
2023-01-29T18:30:19.843Z,98708.47
2023-01-29T18:32:47.793Z,98721.94
2023-01-29T18:35:15.297Z,98723.56
2023-01-29T18:37:42.501Z,98726.66
2023-01-29T18:40:13.530Z,98734.00
2023-01-29T18:42:41.030Z,98725.16
2023-01-29T18:45:08.616Z,98714.13
2023-01-29T18:47:35.613Z,98716.69
2023-01-29T18:50:02.632Z,98718.59
2023-01-29T18:52:29.753Z,98723.16
2023-01-29T18:54:56.798Z,98724.22
2023-01-29T18:58:27.076Z,98730.78
2023-01-29T19:00:11.871Z,98731.09
2023-01-29T19:02:38.917Z,98732.88
2023-01-29T19:05:06.512Z,98730.50
2023-01-29T19:07:33.573Z,98720.31
2023-01-29T19:10:02.565Z,98720.81
2023-01-29T19:12:29.967Z,98729.94
2023-01-29T19:14:57.039Z,98731.44
2023-01-29T19:17:24.133Z,98736.00
2023-01-29T19:19:51.611Z,98735.81
2023-01-29T19:22:19.190Z,98739.50
2023-01-29T19:24:46.288Z,98742.31
2023-01-29T19:27:13.452Z,98751.47
2023-01-29T19:29:40.454Z,98751.19
2023-01-29T19:32:09.036Z,98746.75
2023-01-29T19:34:36.157Z,98750.06
2023-01-29T19:37:03.945Z,98748.31
2023-01-29T19:39:34.510Z,98758.03
2023-01-29T19:42:02.385Z,98757.00
2023-01-29T19:44:29.529Z,98752.72
2023-01-29T19:46:56.570Z,98755.06
2023-01-29T19:49:23.724Z,98763.63
2023-01-29T19:51:50.767Z,98771.72
2023-01-29T19:54:17.824Z,98778.31
2023-01-29T19:56:44.834Z,98775.25
2023-01-29T19:59:12.083Z,98774.50
2023-01-29T20:01:39.123Z,98779.06
2023-01-29T20:04:06.324Z,98769.31
2023-01-29T20:06:34.903Z,98785.75
2023-01-29T20:09:03.162Z,98789.59
2023-01-29T20:11:31.247Z,98787.84
2023-01-29T20:13:59.068Z,98796.97
2023-01-29T20:16:26.892Z,98796.41
2023-01-29T20:18:53.982Z,98795.81
2023-01-29T20:21:22.486Z,98801.13
2023-01-29T20:23:51.299Z,98801.72
2023-01-29T20:26:19.117Z,98803.66
2023-01-29T20:28:48.175Z,98808.22
2023-01-29T20:31:16.482Z,98803.22
2023-01-29T20:33:43.744Z,98799.81
2023-01-29T20:36:12.410Z,98807.66
2023-01-29T20:38:39.819Z,98794.41
2023-01-29T20:41:09.708Z,98789.97
2023-01-29T20:43:36.771Z,98785.59
2023-01-29T20:46:04.548Z,98794.41
2023-01-29T20:48:32.427Z,98797.56
2023-01-29T20:51:05.597Z,98799.16
2023-01-29T20:53:32.928Z,98799.75
2023-01-29T20:56:00.187Z,98801.41
2023-01-29T20:58:27.880Z,98792.38
2023-01-29T21:00:55.000Z,98793.88
2023-01-29T21:03:22.571Z,98790.63
2023-01-29T21:05:50.599Z,98791.34
2023-01-29T21:08:17.761Z,98783.66
2023-01-29T21:10:45.725Z,98779.38
2023-01-29T21:13:13.799Z,98785.72
2023-01-29T21:15:43.671Z,98789.00
2023-01-29T21:18:11.729Z,98778.78
2023-01-29T21:20:38.810Z,98780.28
2023-01-29T21:23:07.178Z,98788.81
2023-01-29T21:25:34.880Z,98787.91
2023-01-29T21:28:03.939Z,98795.00
2023-01-29T21:30:31.266Z,98805.47
2023-01-29T21:32:58.824Z,98805.56
2023-01-29T21:35:26.259Z,98813.22
2023-01-29T21:37:53.325Z,98810.69
2023-01-29T21:40:21.573Z,98809.34
2023-01-29T21:43:07.031Z,98811.69
2023-01-29T21:45:35.677Z,98814.63
2023-01-29T21:48:02.942Z,98810.81
2023-01-29T21:50:30.183Z,98815.19
2023-01-29T21:52:58.704Z,98817.03
2023-01-29T21:55:25.834Z,98814.22
2023-01-29T21:57:52.871Z,98815.84
2023-01-29T22:00:20.261Z,98824.28
2023-01-29T22:02:50.234Z,98825.28
2023-01-29T22:05:19.795Z,98808.91
2023-01-29T22:07:48.357Z,98805.22
2023-01-29T22:10:17.532Z,98791.53
2023-01-29T22:12:45.183Z,98800.28
2023-01-29T22:15:13.030Z,98805.47
2023-01-29T22:17:41.922Z,98809.47
2023-01-29T22:20:14.117Z,98815.94
2023-01-29T22:22:41.526Z,98827.75
2023-01-29T22:25:09.767Z,98820.81
2023-01-29T22:27:36.965Z,98828.31
2023-01-29T22:30:05.460Z,98824.47
2023-01-29T22:32:33.337Z,98817.09
2023-01-29T22:35:00.449Z,98817.09
2023-01-29T22:37:27.510Z,98816.94
2023-01-29T22:39:54.481Z,98815.44
2023-01-29T22:42:21.681Z,98804.22
2023-01-29T22:44:48.876Z,98809.09
2023-01-29T22:47:16.315Z,98791.66
2023-01-29T22:49:46.046Z,98796.97
2023-01-29T22:52:13.373Z,98795.50
2023-01-29T22:54:42.612Z,98788.59
2023-01-29T22:57:12.053Z,98799.03
2023-01-29T22:59:39.503Z,98801.69
2023-01-29T23:02:07.942Z,98803.16
2023-01-29T23:04:35.369Z,98797.56
2023-01-29T23:07:02.611Z,98805.22
2023-01-29T23:09:29.766Z,98794.91
2023-01-29T23:11:57.199Z,98795.81
2023-01-29T23:14:24.244Z,98798.59
2023-01-29T23:16:51.291Z,98791.84
2023-01-29T23:19:18.400Z,98791.09
2023-01-29T23:21:45.398Z,98794.91
2023-01-29T23:24:13.285Z,98793.44
2023-01-29T23:26:58.746Z,98787.59
2023-01-29T23:29:25.827Z,98791.25
2023-01-29T23:31:52.840Z,98797.75
2023-01-29T23:34:20.681Z,98797.28
2023-01-29T23:36:48.000Z,98799.66
2023-01-29T23:39:15.263Z,98790.22
2023-01-29T23:41:42.289Z,98785.78
2023-01-29T23:44:09.399Z,98796.72
2023-01-29T23:46:36.730Z,98799.38
2023-01-29T23:49:03.899Z,98798.19
2023-01-29T23:51:30.890Z,98799.94
2023-01-29T23:53:58.241Z,98801.72
2023-01-29T23:56:25.376Z,98803.19
2023-01-29T23:58:56.232Z,98807.59
